sensor_id;sensor_type;location;lat;lon;timestamp;pressure;altitude;pressure_sealevel;temperature;humidity
61537;BME280;48695;53.480;-6.300;2022-07-23T00:00:51;101095.91;;;21.69;49.14
61537;BME280;48695;53.480;-6.300;2022-07-23T00:03:17;101104.84;;;21.68;49.43
61537;BME280;48695;53.480;-6.300;2022-07-23T00:05:42;101091.56;;;21.68;48.35
61537;BME280;48695;53.480;-6.300;2022-07-23T00:08:08;101091.78;;;21.65;49.19
61537;BME280;48695;53.480;-6.300;2022-07-23T00:10:33;101096.13;;;21.66;48.32
61537;BME280;48695;53.480;-6.300;2022-07-23T00:12:59;101089.97;;;21.65;48.99
61537;BME280;48695;53.480;-6.300;2022-07-23T00:15:25;101077.72;;;21.63;48.55
61537;BME280;48695;53.480;-6.300;2022-07-23T00:17:50;101073.53;;;21.59;48.91
61537;BME280;48695;53.480;-6.300;2022-07-23T00:20:16;101086.63;;;21.62;49.27
61537;BME280;48695;53.480;-6.300;2022-07-23T00:22:52;101083.97;;;21.62;47.88
61537;BME280;48695;53.480;-6.300;2022-07-23T00:25:20;101080.75;;;21.57;49.25
61537;BME280;48695;53.480;-6.300;2022-07-23T00:27:46;101075.34;;;21.58;46.24
61537;BME280;48695;53.480;-6.300;2022-07-23T00:30:12;101055.13;;;21.41;48.65
61537;BME280;48695;53.480;-6.300;2022-07-23T00:32:55;101067.75;;;21.52;47.17
61537;BME280;48695;53.480;-6.300;2022-07-23T00:35:23;101057.63;;;21.44;49.14
61537;BME280;48695;53.480;-6.300;2022-07-23T00:37:50;101077.81;;;21.47;49.16
61537;BME280;48695;53.480;-6.300;2022-07-23T00:40:15;101057.06;;;21.39;49.31
61537;BME280;48695;53.480;-6.300;2022-07-23T00:42:41;101065.59;;;21.44;49.67
61537;BME280;48695;53.480;-6.300;2022-07-23T00:45:07;101055.53;;;21.35;49.78
61537;BME280;48695;53.480;-6.300;2022-07-23T00:47:32;101062.16;;;21.42;49.47
61537;BME280;48695;53.480;-6.300;2022-07-23T00:49:58;101060.44;;;21.41;49.40
61537;BME280;48695;53.480;-6.300;2022-07-23T00:52:24;101038.06;;;21.31;49.67
61537;BME280;48695;53.480;-6.300;2022-07-23T00:54:49;101055.13;;;21.41;48.92
61537;BME280;48695;53.480;-6.300;2022-07-23T00:57:15;101058.53;;;21.43;48.00
61537;BME280;48695;53.480;-6.300;2022-07-23T00:59:41;101054.97;;;21.44;48.79
61537;BME280;48695;53.480;-6.300;2022-07-23T01:02:07;101051.53;;;21.42;48.08
61537;BME280;48695;53.480;-6.300;2022-07-23T01:04:32;101053.22;;;21.43;48.11
61537;BME280;48695;53.480;-6.300;2022-07-23T01:06:58;101050.56;;;21.43;48.30
61537;BME280;48695;53.480;-6.300;2022-07-23T01:09:24;101051.53;;;21.42;48.01
61537;BME280;48695;53.480;-6.300;2022-07-23T01:11:51;101051.34;;;21.45;48.24
61537;BME280;48695;53.480;-6.300;2022-07-23T01:14:19;101041.13;;;21.39;48.16
61537;BME280;48695;53.480;-6.300;2022-07-23T01:16:46;101045.25;;;21.43;48.84
61537;BME280;48695;53.480;-6.300;2022-07-23T01:19:13;101035.97;;;21.36;48.52
61537;BME280;48695;53.480;-6.300;2022-07-23T01:21:41;101041.75;;;21.43;48.72
61537;BME280;48695;53.480;-6.300;2022-07-23T01:24:08;101040.16;;;21.40;48.63
61537;BME280;48695;53.480;-6.300;2022-07-23T01:26:33;101030.66;;;21.36;48.75
61537;BME280;48695;53.480;-6.300;2022-07-23T01:28:59;101030.66;;;21.36;49.31
61537;BME280;48695;53.480;-6.300;2022-07-23T01:31:25;101029.13;;;21.32;49.48
61537;BME280;48695;53.480;-6.300;2022-07-23T01:33:50;101023.09;;;21.30;49.08
61537;BME280;48695;53.480;-6.300;2022-07-23T01:36:16;101015.13;;;21.30;49.06
61537;BME280;48695;53.480;-6.300;2022-07-23T01:38:41;101019.63;;;21.28;50.01
61537;BME280;48695;53.480;-6.300;2022-07-23T01:41:06;101018.88;;;21.26;49.81
61537;BME280;48695;53.480;-6.300;2022-07-23T01:43:32;101018.88;;;21.26;49.51
61537;BME280;48695;53.480;-6.300;2022-07-23T01:45:57;101013.56;;;21.26;50.42
61537;BME280;48695;53.480;-6.300;2022-07-23T01:48:23;101005.69;;;21.24;50.65
61537;BME280;48695;53.480;-6.300;2022-07-23T01:50:48;101000.38;;;21.24;50.30
61537;BME280;48695;53.480;-6.300;2022-07-23T01:53:14;101012.59;;;21.27;50.82
61537;BME280;48695;53.480;-6.300;2022-07-23T01:55:40;101001.03;;;21.28;51.30
61537;BME280;48695;53.480;-6.300;2022-07-23T01:58:06;101000.09;;;21.29;51.40
61537;BME280;48695;53.480;-6.300;2022-07-23T02:00:31;101000.88;;;21.31;51.44
61537;BME280;48695;53.480;-6.300;2022-07-23T02:02:57;100990.25;;;21.31;51.72
61537;BME280;48695;53.480;-6.300;2022-07-23T02:05:24;100991.78;;;21.35;51.65
61537;BME280;48695;53.480;-6.300;2022-07-23T02:07:50;100993.47;;;21.36;50.94
61537;BME280;48695;53.480;-6.300;2022-07-23T02:10:16;100977.22;;;21.27;50.48
61537;BME280;48695;53.480;-6.300;2022-07-23T02:12:42;100980.28;;;21.35;50.40
61537;BME280;48695;53.480;-6.300;2022-07-23T02:15:07;100974.31;;;21.31;50.22
61537;BME280;48695;53.480;-6.300;2022-07-23T02:17:33;100961.56;;;21.22;50.89
61537;BME280;48695;53.480;-6.300;2022-07-23T02:19:59;100969.16;;;21.28;51.75
61537;BME280;48695;53.480;-6.300;2022-07-23T02:22:24;100931.06;;;21.01;51.91
61537;BME280;48695;53.480;-6.300;2022-07-23T02:24:53;100955.69;;;21.17;52.06
61537;BME280;48695;53.480;-6.300;2022-07-23T02:27:18;100958.25;;;21.18;51.60
61537;BME280;48695;53.480;-6.300;2022-07-23T02:29:43;100954.84;;;21.16;51.18
61537;BME280;48695;53.480;-6.300;2022-07-23T02:32:09;100951.53;;;21.13;52.87
61537;BME280;48695;53.480;-6.300;2022-07-23T02:34:34;100955.13;;;21.12;53.16
61537;BME280;48695;53.480;-6.300;2022-07-23T02:37:00;100964.06;;;21.11;53.40
61537;BME280;48695;53.480;-6.300;2022-07-23T02:39:25;100956.09;;;21.11;53.76
61537;BME280;48695;53.480;-6.300;2022-07-23T02:41:51;100954.19;;;21.13;53.32
61537;BME280;48695;53.480;-6.300;2022-07-23T02:44:16;100948.00;;;21.12;52.39
61537;BME280;48695;53.480;-6.300;2022-07-23T02:46:42;100945.28;;;21.14;53.12
61537;BME280;48695;53.480;-6.300;2022-07-23T02:49:07;100941.84;;;21.12;53.24
61537;BME280;48695;53.480;-6.300;2022-07-23T02:51:33;100947.38;;;21.09;53.81
61537;BME280;48695;53.480;-6.300;2022-07-23T02:53:58;100947.75;;;21.03;53.64
61537;BME280;48695;53.480;-6.300;2022-07-23T02:56:23;100952.59;;;20.96;53.25
61537;BME280;48695;53.480;-6.300;2022-07-23T02:58:49;100942.81;;;20.82;53.46
61537;BME280;48695;53.480;-6.300;2022-07-23T03:01:14;100936.75;;;20.80;53.60
61537;BME280;48695;53.480;-6.300;2022-07-23T03:03:40;100937.13;;;20.74;53.46
61537;BME280;48695;53.480;-6.300;2022-07-23T03:06:05;100922.63;;;20.65;53.38
61537;BME280;48695;53.480;-6.300;2022-07-23T03:08:31;100929.75;;;20.65;53.90
61537;BME280;48695;53.480;-6.300;2022-07-23T03:10:56;100910.41;;;20.49;53.50
61537;BME280;48695;53.480;-6.300;2022-07-23T03:13:21;100924.81;;;20.59;53.19
61537;BME280;48695;53.480;-6.300;2022-07-23T03:15:47;100917.03;;;20.56;52.98
61537;BME280;48695;53.480;-6.300;2022-07-23T03:18:12;100917.03;;;20.56;53.58
61537;BME280;48695;53.480;-6.300;2022-07-23T03:20:38;100910.97;;;20.54;53.09
61537;BME280;48695;53.480;-6.300;2022-07-23T03:23:03;100903.34;;;20.47;53.43
61537;BME280;48695;53.480;-6.300;2022-07-23T03:25:28;100910.00;;;20.55;52.89
61537;BME280;48695;53.480;-6.300;2022-07-23T03:27:54;100913.41;;;20.57;53.42
61537;BME280;48695;53.480;-6.300;2022-07-23T03:30:19;100913.41;;;20.57;53.71
61537;BME280;48695;53.480;-6.300;2022-07-23T03:32:45;100905.47;;;20.57;53.46
61537;BME280;48695;53.480;-6.300;2022-07-23T03:35:10;100901.09;;;20.56;53.27
61537;BME280;48695;53.480;-6.300;2022-07-23T03:37:36;100900.34;;;20.54;53.67
61537;BME280;48695;53.480;-6.300;2022-07-23T03:40:01;100887.44;;;20.47;54.08
61537;BME280;48695;53.480;-6.300;2022-07-23T03:42:27;100893.41;;;20.51;54.44
61537;BME280;48695;53.480;-6.300;2022-07-23T03:44:52;100885.56;;;20.50;53.83
61537;BME280;48695;53.480;-6.300;2022-07-23T03:47:18;100878.69;;;20.45;54.60
61537;BME280;48695;53.480;-6.300;2022-07-23T03:49:47;100872.56;;;20.45;53.95
61537;BME280;48695;53.480;-6.300;2022-07-23T03:52:12;100858.59;;;20.41;53.47
61537;BME280;48695;53.480;-6.300;2022-07-23T03:54:38;100869.91;;;20.45;55.32
61537;BME280;48695;53.480;-6.300;2022-07-23T03:57:03;100872.72;;;20.42;54.86
61537;BME280;48695;53.480;-6.300;2022-07-23T03:59:29;100866.50;;;20.43;55.32
61537;BME280;48695;53.480;-6.300;2022-07-23T04:01:54;100863.91;;;20.41;54.87
61537;BME280;48695;53.480;-6.300;2022-07-23T04:04:20;100863.16;;;20.39;55.33
61537;BME280;48695;53.480;-6.300;2022-07-23T04:06:45;100829.53;;;20.26;55.25
61537;BME280;48695;53.480;-6.300;2022-07-23T04:09:11;100857.19;;;20.36;56.18
61537;BME280;48695;53.480;-6.300;2022-07-23T04:11:36;100852.00;;;20.34;56.96
61537;BME280;48695;53.480;-6.300;2022-07-23T04:14:02;100836.06;;;20.20;57.21
61537;BME280;48695;53.480;-6.300;2022-07-23T04:16:27;100846.97;;;20.30;57.16
61537;BME280;48695;53.480;-6.300;2022-07-23T04:18:53;100847.06;;;20.28;57.73
61537;BME280;48695;53.480;-6.300;2022-07-23T04:21:19;100838.53;;;20.23;58.04
61537;BME280;48695;53.480;-6.300;2022-07-23T04:23:45;100835.09;;;20.21;57.63
61537;BME280;48695;53.480;-6.300;2022-07-23T04:26:10;100842.22;;;20.20;58.45
61537;BME280;48695;53.480;-6.300;2022-07-23T04:28:36;100835.22;;;20.19;58.08
61537;BME280;48695;53.480;-6.300;2022-07-23T04:31:01;100844.97;;;20.19;58.13
61537;BME280;48695;53.480;-6.300;2022-07-23T04:33:26;100838.72;;;20.20;58.48
61537;BME280;48695;53.480;-6.300;2022-07-23T04:35:52;100824.13;;;20.13;58.80
61537;BME280;48695;53.480;-6.300;2022-07-23T04:38:17;100826.56;;;20.16;58.74
61537;BME280;48695;53.480;-6.300;2022-07-23T04:40:42;100834.34;;;20.19;58.12
61537;BME280;48695;53.480;-6.300;2022-07-23T04:43:08;100822.78;;;20.20;58.19
61537;BME280;48695;53.480;-6.300;2022-07-23T04:45:33;100803.09;;;20.10;58.20
61537;BME280;48695;53.480;-6.300;2022-07-23T04:47:59;100824.44;;;20.23;58.77
61537;BME280;48695;53.480;-6.300;2022-07-23T04:50:24;100826.13;;;20.24;59.46
61537;BME280;48695;53.480;-6.300;2022-07-23T04:52:50;100823.47;;;20.24;59.47
61537;BME280;48695;53.480;-6.300;2022-07-23T04:55:15;100820.03;;;20.21;59.84
61537;BME280;48695;53.480;-6.300;2022-07-23T04:57:41;100810.94;;;20.11;60.63
61537;BME280;48695;53.480;-6.300;2022-07-23T05:00:07;100828.19;;;20.18;61.14
61537;BME280;48695;53.480;-6.300;2022-07-23T05:02:33;100827.53;;;20.15;61.97
61537;BME280;48695;53.480;-6.300;2022-07-23T05:04:58;100832.94;;;20.13;62.53
61537;BME280;48695;53.480;-6.300;2022-07-23T05:07:24;100828.28;;;20.03;63.93
61537;BME280;48695;53.480;-6.300;2022-07-23T05:09:49;100837.16;;;20.02;63.98
61537;BME280;48695;53.480;-6.300;2022-07-23T05:12:15;100835.81;;;19.94;64.48
61537;BME280;48695;53.480;-6.300;2022-07-23T05:14:40;100827.47;;;19.86;64.69
61537;BME280;48695;53.480;-6.300;2022-07-23T05:17:07;100810.97;;;19.67;65.16
61537;BME280;48695;53.480;-6.300;2022-07-23T05:19:34;100819.84;;;19.66;65.60
61537;BME280;48695;53.480;-6.300;2022-07-23T05:21:59;100829.69;;;19.64;67.93
61537;BME280;48695;53.480;-6.300;2022-07-23T05:24:25;100822.84;;;19.60;68.28
61537;BME280;48695;53.480;-6.300;2022-07-23T05:26:50;100825.66;;;19.57;68.58
61537;BME280;48695;53.480;-6.300;2022-07-23T05:29:16;100812.69;;;19.52;68.96
61537;BME280;48695;53.480;-6.300;2022-07-23T05:31:41;100810.09;;;19.51;69.56
61537;BME280;48695;53.480;-6.300;2022-07-23T05:34:07;100804.81;;;19.51;69.54
61537;BME280;48695;53.480;-6.300;2022-07-23T05:36:32;100807.56;;;19.49;67.98
61537;BME280;48695;53.480;-6.300;2022-07-23T05:38:58;100801.41;;;19.49;69.88
61537;BME280;48695;53.480;-6.300;2022-07-23T05:41:23;100803.31;;;19.47;68.99
61537;BME280;48695;53.480;-6.300;2022-07-23T05:43:49;100800.66;;;19.47;70.33
61537;BME280;48695;53.480;-6.300;2022-07-23T05:46:14;100797.31;;;19.43;70.40
61537;BME280;48695;53.480;-6.300;2022-07-23T05:48:40;100776.66;;;19.34;70.18
61537;BME280;48695;53.480;-6.300;2022-07-23T05:51:06;100795.44;;;19.45;70.34
61537;BME280;48695;53.480;-6.300;2022-07-23T05:53:32;100793.63;;;19.45;70.18
61537;BME280;48695;53.480;-6.300;2022-07-23T05:55:58;100789.28;;;19.44;70.73
61537;BME280;48695;53.480;-6.300;2022-07-23T05:58:23;100784.84;;;19.45;70.83
61537;BME280;48695;53.480;-6.300;2022-07-23T06:00:49;100775.28;;;19.42;70.46
61537;BME280;48695;53.480;-6.300;2022-07-23T06:03:14;100778.69;;;19.44;69.75
61537;BME280;48695;53.480;-6.300;2022-07-23T06:05:40;100779.53;;;19.45;69.83
61537;BME280;48695;53.480;-6.300;2022-07-23T06:08:05;100768.63;;;19.35;69.01
61537;BME280;48695;53.480;-6.300;2022-07-23T06:10:30;100776.22;;;19.41;69.87
61537;BME280;48695;53.480;-6.300;2022-07-23T06:12:56;100755.00;;;19.27;68.97
61537;BME280;48695;53.480;-6.300;2022-07-23T06:15:22;100741.91;;;19.24;69.29
61537;BME280;48695;53.480;-6.300;2022-07-23T06:17:47;100764.84;;;19.39;69.16
61537;BME280;48695;53.480;-6.300;2022-07-23T06:20:13;100753.28;;;19.26;69.64
61537;BME280;48695;53.480;-6.300;2022-07-23T06:22:38;100758.22;;;19.32;69.43
61537;BME280;48695;53.480;-6.300;2022-07-23T06:25:04;100759.06;;;19.33;69.44
61537;BME280;48695;53.480;-6.300;2022-07-23T06:27:30;100758.97;;;19.34;70.59
61537;BME280;48695;53.480;-6.300;2022-07-23T06:29:55;100764.28;;;19.34;71.30
61537;BME280;48695;53.480;-6.300;2022-07-23T06:32:21;100756.53;;;19.31;72.17
61537;BME280;48695;53.480;-6.300;2022-07-23T06:34:46;100771.53;;;19.31;71.47
61537;BME280;48695;53.480;-6.300;2022-07-23T06:37:12;100770.69;;;19.30;71.62
61537;BME280;48695;53.480;-6.300;2022-07-23T06:39:37;100766.44;;;19.28;72.61
61537;BME280;48695;53.480;-6.300;2022-07-23T06:42:02;100763.88;;;19.26;73.37
61537;BME280;48695;53.480;-6.300;2022-07-23T06:44:28;100764.06;;;19.23;73.72
61537;BME280;48695;53.480;-6.300;2022-07-23T06:46:54;100764.06;;;19.23;74.04
61537;BME280;48695;53.480;-6.300;2022-07-23T06:49:19;100760.44;;;19.24;73.17
61537;BME280;48695;53.480;-6.300;2022-07-23T06:51:45;100753.47;;;19.23;73.35
61537;BME280;48695;53.480;-6.300;2022-07-23T06:54:10;100750.97;;;19.20;73.56
61537;BME280;48695;53.480;-6.300;2022-07-23T06:56:36;100751.75;;;19.22;74.93
61537;BME280;48695;53.480;-6.300;2022-07-23T06:59:02;100751.75;;;19.22;74.59
61537;BME280;48695;53.480;-6.300;2022-07-23T07:01:27;100748.06;;;19.25;74.35
61537;BME280;48695;53.480;-6.300;2022-07-23T07:03:53;100753.28;;;19.26;74.48
61537;BME280;48695;53.480;-6.300;2022-07-23T07:06:18;100733.41;;;19.19;74.33
61537;BME280;48695;53.480;-6.300;2022-07-23T07:08:44;100746.28;;;19.25;74.25
61537;BME280;48695;53.480;-6.300;2022-07-23T07:11:10;100742.72;;;19.26;74.78
61537;BME280;48695;53.480;-6.300;2022-07-23T07:13:36;100742.72;;;19.26;74.39
61537;BME280;48695;53.480;-6.300;2022-07-23T07:16:02;100730.75;;;19.19;74.37
61537;BME280;48695;53.480;-6.300;2022-07-23T07:18:28;100742.88;;;19.23;75.14
61537;BME280;48695;53.480;-6.300;2022-07-23T07:20:53;100738.53;;;19.22;75.76
61537;BME280;48695;53.480;-6.300;2022-07-23T07:23:18;100739.28;;;19.24;75.21
61537;BME280;48695;53.480;-6.300;2022-07-23T07:25:46;100741.81;;;19.26;75.89
61537;BME280;48695;53.480;-6.300;2022-07-23T07:28:11;100731.16;;;19.27;74.91
61537;BME280;48695;53.480;-6.300;2022-07-23T07:30:36;100721.53;;;19.26;75.06
61537;BME280;48695;53.480;-6.300;2022-07-23T07:33:02;100720.47;;;19.29;74.15
61537;BME280;48695;53.480;-6.300;2022-07-23T07:35:27;100721.22;;;19.31;74.64
61537;BME280;48695;53.480;-6.300;2022-07-23T07:37:53;100718.56;;;19.31;73.76
61537;BME280;48695;53.480;-6.300;2022-07-23T07:40:18;100719.63;;;19.28;74.94
61537;BME280;48695;53.480;-6.300;2022-07-23T07:42:48;100714.16;;;19.31;75.09
61537;BME280;48695;53.480;-6.300;2022-07-23T07:45:14;100711.84;;;19.25;75.66
61537;BME280;48695;53.480;-6.300;2022-07-23T07:47:40;100710.56;;;19.32;75.17
61537;BME280;48695;53.480;-6.300;2022-07-23T07:50:06;100707.81;;;19.34;74.97
61537;BME280;48695;53.480;-6.300;2022-07-23T07:52:33;100705.91;;;19.36;75.61
61537;BME280;48695;53.480;-6.300;2022-07-23T07:54:58;100691.94;;;19.34;75.71
61537;BME280;48695;53.480;-6.300;2022-07-23T07:57:24;100702.66;;;19.47;75.18
61537;BME280;48695;53.480;-6.300;2022-07-23T07:59:49;100700.59;;;19.52;75.68
61537;BME280;48695;53.480;-6.300;2022-07-23T08:02:14;100702.09;;;19.56;75.98
61537;BME280;48695;53.480;-6.300;2022-07-23T08:04:40;100697.41;;;19.61;74.23
61537;BME280;48695;53.480;-6.300;2022-07-23T08:07:05;100691.94;;;19.64;75.11
61537;BME280;48695;53.480;-6.300;2022-07-23T08:09:31;100691.53;;;19.70;75.32
61537;BME280;48695;53.480;-6.300;2022-07-23T08:11:56;100689.56;;;19.74;75.51
61537;BME280;48695;53.480;-6.300;2022-07-23T08:14:21;100677.75;;;19.79;75.24
61537;BME280;48695;53.480;-6.300;2022-07-23T08:16:47;100673.97;;;19.83;75.01
61537;BME280;48695;53.480;-6.300;2022-07-23T08:19:12;100675.38;;;19.89;73.16
61537;BME280;48695;53.480;-6.300;2022-07-23T08:21:37;100673.41;;;19.92;74.45
61537;BME280;48695;53.480;-6.300;2022-07-23T08:24:03;100664.50;;;19.93;74.15
61537;BME280;48695;53.480;-6.300;2022-07-23T08:26:28;100678.09;;;20.02;73.46
61537;BME280;48695;53.480;-6.300;2022-07-23T08:28:54;100672.63;;;20.05;73.80
61537;BME280;48695;53.480;-6.300;2022-07-23T08:31:20;100669.03;;;20.06;73.78
61537;BME280;48695;53.480;-6.300;2022-07-23T08:33:46;100661.16;;;20.04;74.13
61537;BME280;48695;53.480;-6.300;2022-07-23T08:36:11;100658.63;;;20.03;74.47
61537;BME280;48695;53.480;-6.300;2022-07-23T08:38:36;100656.81;;;20.03;74.98
61537;BME280;48695;53.480;-6.300;2022-07-23T08:41:02;100646.50;;;19.99;75.03
61537;BME280;48695;53.480;-6.300;2022-07-23T08:43:31;100653.22;;;20.04;75.67
61537;BME280;48695;53.480;-6.300;2022-07-23T08:45:58;100654.81;;;20.07;75.70
61537;BME280;48695;53.480;-6.300;2022-07-23T08:48:26;100659.94;;;20.10;74.82
61537;BME280;48695;53.480;-6.300;2022-07-23T08:50:53;100642.50;;;20.06;74.63
61537;BME280;48695;53.480;-6.300;2022-07-23T08:53:20;100646.50;;;20.13;75.16
61537;BME280;48695;53.480;-6.300;2022-07-23T08:55:47;100632.38;;;20.12;74.67
61537;BME280;48695;53.480;-6.300;2022-07-23T08:58:13;100639.16;;;20.16;74.98
61537;BME280;48695;53.480;-6.300;2022-07-23T09:00:39;100634.66;;;20.18;73.75
61537;BME280;48695;53.480;-6.300;2022-07-23T09:03:05;100628.50;;;20.18;74.23
61537;BME280;48695;53.480;-6.300;2022-07-23T09:05:30;100625.06;;;20.16;74.41
61537;BME280;48695;53.480;-6.300;2022-07-23T09:08:13;100630.94;;;20.21;73.33
61537;BME280;48695;53.480;-6.300;2022-07-23T09:10:55;100629.06;;;20.23;73.92
61537;BME280;48695;53.480;-6.300;2022-07-23T09:13:41;100611.63;;;20.19;72.44
61537;BME280;48695;53.480;-6.300;2022-07-23T09:18:54;100620.69;;;20.29;74.92
61537;BME280;48695;53.480;-6.300;2022-07-23T09:24:10;100622.53;;;20.41;74.11
61537;BME280;48695;53.480;-6.300;2022-07-23T09:26:42;100618.94;;;20.42;74.04
61537;BME280;48695;53.480;-6.300;2022-07-23T09:36:42;100600.09;;;20.47;75.05
61537;BME280;48695;53.480;-6.300;2022-07-23T09:39:09;100604.69;;;20.58;75.73
61537;BME280;48695;53.480;-6.300;2022-07-23T09:41:40;100610.53;;;20.63;75.14
61537;BME280;48695;53.480;-6.300;2022-07-23T09:44:08;100603.34;;;20.65;74.81
61537;BME280;48695;53.480;-6.300;2022-07-23T09:46:35;100599.75;;;20.66;74.29
61537;BME280;48695;53.480;-6.300;2022-07-23T09:49:10;100584.66;;;20.66;73.62
61537;BME280;48695;53.480;-6.300;2022-07-23T09:51:56;100578.09;;;20.72;72.30
61537;BME280;48695;53.480;-6.300;2022-07-23T09:56:56;100578.09;;;20.72;74.02
61537;BME280;48695;53.480;-6.300;2022-07-23T09:59:25;100576.94;;;20.76;74.42
61537;BME280;48695;53.480;-6.300;2022-07-23T10:01:53;100577.69;;;20.78;74.47
61537;BME280;48695;53.480;-6.300;2022-07-23T10:04:21;100579.19;;;20.82;75.07
61537;BME280;48695;53.480;-6.300;2022-07-23T10:06:48;100574.41;;;20.87;74.79
61537;BME280;48695;53.480;-6.300;2022-07-23T10:09:20;100564.13;;;20.95;74.04
61537;BME280;48695;53.480;-6.300;2022-07-23T10:11:48;100566.59;;;20.98;74.00
61537;BME280;48695;53.480;-6.300;2022-07-23T10:14:14;100560.94;;;21.03;73.95
61537;BME280;48695;53.480;-6.300;2022-07-23T10:16:40;100557.97;;;21.08;74.04
61537;BME280;48695;53.480;-6.300;2022-07-23T10:19:06;100562.00;;;21.13;73.79
61537;BME280;48695;53.480;-6.300;2022-07-23T10:21:44;100555.03;;;21.25;73.08
61537;BME280;48695;53.480;-6.300;2022-07-23T10:24:31;100563.59;;;21.29;73.03
61537;BME280;48695;53.480;-6.300;2022-07-23T10:37:46;100541.84;;;21.62;72.35
61537;BME280;48695;53.480;-6.300;2022-07-23T10:40:17;100542.56;;;21.64;73.17
61537;BME280;48695;53.480;-6.300;2022-07-23T10:42:45;100534.38;;;21.67;72.68
61537;BME280;48695;53.480;-6.300;2022-07-23T10:45:26;100530.31;;;21.74;71.60
61537;BME280;48695;53.480;-6.300;2022-07-23T10:47:53;100523.19;;;21.74;72.85
61537;BME280;48695;53.480;-6.300;2022-07-23T10:50:27;100516.69;;;21.79;71.02
61537;BME280;48695;53.480;-6.300;2022-07-23T10:53:16;100528.59;;;21.86;71.73
61537;BME280;48695;53.480;-6.300;2022-07-23T10:55:46;100516.66;;;21.91;69.14
61537;BME280;48695;53.480;-6.300;2022-07-23T10:58:21;100519.66;;;21.87;72.15
61537;BME280;48695;53.480;-6.300;2022-07-23T11:00:46;100524.78;;;21.77;73.26
61537;BME280;48695;53.480;-6.300;2022-07-23T11:03:31;100518.75;;;21.75;71.99
61537;BME280;48695;53.480;-6.300;2022-07-23T11:06:04;100518.44;;;21.67;73.70
61537;BME280;48695;53.480;-6.300;2022-07-23T11:08:30;100509.72;;;21.65;74.55
61537;BME280;48695;53.480;-6.300;2022-07-23T11:11:08;100501.41;;;21.69;73.72
61537;BME280;48695;53.480;-6.300;2022-07-23T11:13:40;100501.19;;;21.72;74.04
61537;BME280;48695;53.480;-6.300;2022-07-23T11:16:23;100506.69;;;21.82;73.51
61537;BME280;48695;53.480;-6.300;2022-07-23T11:18:55;100506.25;;;21.88;74.38
61537;BME280;48695;53.480;-6.300;2022-07-23T11:26:50;100493.00;;;22.12;71.31
61537;BME280;48695;53.480;-6.300;2022-07-23T11:32:04;100494.13;;;22.21;72.38
61537;BME280;48695;53.480;-6.300;2022-07-23T11:34:39;100484.72;;;22.28;73.81
61537;BME280;48695;53.480;-6.300;2022-07-23T11:37:08;100484.03;;;22.37;73.35
61537;BME280;48695;53.480;-6.300;2022-07-23T11:39:34;100478.94;;;22.45;73.52
61537;BME280;48695;53.480;-6.300;2022-07-23T11:42:01;100480.56;;;22.59;72.56
61537;BME280;48695;53.480;-6.300;2022-07-23T11:44:36;100481.22;;;22.74;72.00
61537;BME280;48695;53.480;-6.300;2022-07-23T11:47:03;100474.22;;;22.84;72.66
61537;BME280;48695;53.480;-6.300;2022-07-23T11:49:29;100468.69;;;22.98;71.60
61537;BME280;48695;53.480;-6.300;2022-07-23T11:52:14;100485.03;;;23.16;70.72
61537;BME280;48695;53.480;-6.300;2022-07-23T11:57:21;100468.09;;;23.28;70.47
61537;BME280;48695;53.480;-6.300;2022-07-23T11:59:52;100459.25;;;23.39;70.09
61537;BME280;48695;53.480;-6.300;2022-07-23T12:02:19;100455.38;;;23.43;71.27
61537;BME280;48695;53.480;-6.300;2022-07-23T12:04:49;100453.78;;;23.52;69.50
61537;BME280;48695;53.480;-6.300;2022-07-23T12:07:33;100463.47;;;23.64;69.14
61537;BME280;48695;53.480;-6.300;2022-07-23T12:10:04;100463.09;;;23.69;68.82
61537;BME280;48695;53.480;-6.300;2022-07-23T12:12:43;100440.78;;;23.70;68.58
61537;BME280;48695;53.480;-6.300;2022-07-23T12:15:13;100459.41;;;23.81;68.00
61537;BME280;48695;53.480;-6.300;2022-07-23T12:17:41;100478.81;;;23.83;67.86
61537;BME280;48695;53.480;-6.300;2022-07-23T12:20:09;100489.22;;;23.86;68.11
61537;BME280;48695;53.480;-6.300;2022-07-23T12:22:49;100456.38;;;23.86;67.67
61537;BME280;48695;53.480;-6.300;2022-07-23T12:25:17;100460.88;;;23.85;68.54
61537;BME280;48695;53.480;-6.300;2022-07-23T12:27:43;100460.63;;;23.88;68.28
61537;BME280;48695;53.480;-6.300;2022-07-23T12:32:46;100451.34;;;24.03;67.78
61537;BME280;48695;53.480;-6.300;2022-07-23T12:35:12;100450.09;;;24.07;67.64
61537;BME280;48695;53.480;-6.300;2022-07-23T12:37:43;100470.38;;;24.31;67.59
61537;BME280;48695;53.480;-6.300;2022-07-23T12:42:46;100451.16;;;24.69;66.15
61537;BME280;48695;53.480;-6.300;2022-07-23T12:45:12;100455.88;;;24.87;66.84
61537;BME280;48695;53.480;-6.300;2022-07-23T12:48:01;100450.72;;;25.16;66.20
61537;BME280;48695;53.480;-6.300;2022-07-23T12:50:42;100442.78;;;25.35;65.00
61537;BME280;48695;53.480;-6.300;2022-07-23T12:53:09;100457.84;;;25.46;64.89
61537;BME280;48695;53.480;-6.300;2022-07-23T12:55:35;100461.41;;;25.66;63.66
61537;BME280;48695;53.480;-6.300;2022-07-23T12:58:13;100422.75;;;25.89;64.62
61537;BME280;48695;53.480;-6.300;2022-07-23T13:00:57;100466.41;;;26.38;64.54
61537;BME280;48695;53.480;-6.300;2022-07-23T13:03:32;100445.41;;;26.62;62.32
61537;BME280;48695;53.480;-6.300;2022-07-23T13:05:59;100440.50;;;26.95;61.07
61537;BME280;48695;53.480;-6.300;2022-07-23T13:08:26;100427.91;;;27.15;61.94
61537;BME280;48695;53.480;-6.300;2022-07-23T13:10:52;100427.41;;;27.29;59.00
61537;BME280;48695;53.480;-6.300;2022-07-23T13:13:21;100415.41;;;27.51;59.91
61537;BME280;48695;53.480;-6.300;2022-07-23T13:15:47;100389.91;;;27.65;59.15
61537;BME280;48695;53.480;-6.300;2022-07-23T13:18:12;100387.72;;;27.96;59.04
61537;BME280;48695;53.480;-6.300;2022-07-23T13:20:38;100403.56;;;28.25;60.20
61537;BME280;48695;53.480;-6.300;2022-07-23T13:23:06;100390.63;;;28.73;56.37